Time;durP1;ratioP1;P1;durP2;ratioP2;P2;SDS_P1;SDS_P2;PMS_P1;PMS_P2;Temp;Humidity;BMP_temperature;BMP_pressure;BME280_temperature;BME280_humidity;BME280_pressure;Samples;Min_cycle;Max_cycle;Signal;HPM_P1;HPM_P2
2023/01/18 00:00:15;;;;;;;21.90;11.18;;;-1.90;99.90;;;;;;5070849;28;20052;-71
2023/01/18 00:02:40;;;;;;;18.20;10.48;;;-1.90;99.90;;;;;;5059210;28;20452;-71
2023/01/18 00:05:06;;;;;;;20.92;10.38;;;-1.90;99.90;;;;;;5067921;28;20384;-70
2023/01/18 00:07:32;;;;;;;22.45;9.95;;;-1.90;99.90;;;;;;5061668;28;20104;-71
2023/01/18 00:09:57;;;;;;;20.60;10.93;;;-1.90;99.90;;;;;;5052128;28;20206;-70
2023/01/18 00:12:23;;;;;;;21.33;10.45;;;-1.90;99.90;;;;;;5064360;28;20036;-70
2023/01/18 00:14:48;;;;;;;21.58;9.63;;;-1.90;99.90;;;;;;5057614;28;20028;-71
2023/01/18 00:17:14;;;;;;;24.55;10.48;;;-2.00;99.90;;;;;;5050712;28;20381;-70
2023/01/18 00:19:39;;;;;;;22.52;9.95;;;-2.00;99.90;;;;;;5061770;28;20385;-71
2023/01/18 00:22:05;;;;;;;23.60;10.73;;;-2.00;99.90;;;;;;5057093;28;20032;-71
2023/01/18 00:24:30;;;;;;;22.25;10.50;;;-1.90;99.90;;;;;;5068364;28;20040;-71
2023/01/18 00:26:56;;;;;;;23.75;10.52;;;-2.00;99.90;;;;;;5063693;28;20028;-70
2023/01/18 00:29:21;;;;;;;25.63;10.80;;;-1.90;99.90;;;;;;5056436;28;20372;-70
2023/01/18 00:31:47;;;;;;;23.45;10.63;;;-1.90;99.90;;;;;;5060931;28;20036;-70
2023/01/18 00:34:13;;;;;;;25.95;11.38;;;-1.90;99.90;;;;;;5072173;28;20028;-70
2023/01/18 00:36:39;;;;;;;21.60;10.23;;;-1.90;99.90;;;;;;5058596;28;20041;-71
2023/01/18 00:39:05;;;;;;;18.80;10.05;;;-1.90;99.90;;;;;;5067398;28;20027;-71
2023/01/18 00:41:30;;;;;;;22.42;10.45;;;-1.90;99.90;;;;;;5058536;28;20041;-70
2023/01/18 00:43:56;;;;;;;23.05;11.18;;;-1.90;99.90;;;;;;5070670;28;20521;-71
2023/01/18 00:46:24;;;;;;;25.73;10.45;;;-1.90;99.90;;;;;;5071724;28;20103;-70
2023/01/18 00:48:50;;;;;;;22.98;10.80;;;-1.80;99.90;;;;;;5070618;28;20025;-71
2023/01/18 00:51:19;;;;;;;23.00;10.30;;;-1.90;99.90;;;;;;5068072;28;20075;-70
2023/01/18 00:53:46;;;;;;;19.90;9.95;;;-1.80;99.90;;;;;;5062418;28;20036;-71
2023/01/18 00:56:14;;;;;;;23.67;11.00;;;-1.90;99.90;;;;;;5072717;28;20468;-70
2023/01/18 00:58:40;;;;;;;18.92;9.35;;;-1.90;99.90;;;;;;5065518;28;20415;-71
2023/01/18 01:01:06;;;;;;;18.90;9.95;;;-1.90;99.90;;;;;;5065066;28;20027;-70
2023/01/18 01:06:42;;;;;;;23.77;10.60;;;-1.90;99.90;;;;;;5063229;28;20119;-71
2023/01/18 01:09:28;;;;;;;22.77;9.60;;;-2.00;99.90;;;;;;5051805;28;20047;-70
2023/01/18 01:28:24;;;;;;;21.67;10.55;;;-2.00;99.90;;;;;;5053023;28;20087;-71
2023/01/18 01:30:49;;;;;;;22.20;9.55;;;-1.90;99.90;;;;;;5069996;28;20025;-70
2023/01/18 01:33:16;;;;;;;19.08;8.65;;;-1.80;99.90;;;;;;5070279;28;20036;-70
2023/01/18 01:35:42;;;;;;;20.48;9.52;;;-1.80;99.90;;;;;;5055676;28;20029;-70
2023/01/18 01:38:07;;;;;;;21.05;10.05;;;-1.70;99.90;;;;;;5062148;28;20033;-70
2023/01/18 01:40:33;;;;;;;19.35;9.40;;;-1.70;99.90;;;;;;5061056;28;20116;-70
2023/01/18 01:42:58;;;;;;;19.90;9.48;;;-1.70;99.90;;;;;;5059348;28;20033;-70
2023/01/18 01:45:26;;;;;;;22.80;9.45;;;-1.70;99.90;;;;;;5067041;28;20045;-70
2023/01/18 01:47:54;;;;;;;21.48;10.40;;;-1.70;99.90;;;;;;5053979;28;20104;-70
2023/01/18 01:50:36;;;;;;;17.85;9.35;;;-1.70;99.90;;;;;;5069588;28;20029;-70
2023/01/18 01:53:02;;;;;;;16.17;8.55;;;-1.70;99.90;;;;;;5057817;28;20023;-70
2023/01/18 01:55:31;;;;;;;19.40;9.10;;;-1.80;99.90;;;;;;5072736;28;20040;-70
2023/01/18 01:58:08;;;;;;;20.00;9.40;;;-1.80;99.90;;;;;;5066245;28;20389;-70
2023/01/18 02:00:33;;;;;;;21.50;9.82;;;-1.80;99.90;;;;;;5052555;28;20496;-70
2023/01/18 02:03:06;;;;;;;17.48;9.23;;;-1.80;99.90;;;;;;5067240;28;20093;-70
2023/01/18 02:05:35;;;;;;;22.58;10.30;;;-1.90;99.90;;;;;;5071713;28;20028;-70
2023/01/18 02:08:02;;;;;;;16.95;9.77;;;-1.90;99.90;;;;;;5069310;28;20044;-70
2023/01/18 02:10:29;;;;;;;19.58;9.48;;;-1.90;99.90;;;;;;5058166;28;20028;-71
2023/01/18 02:12:57;;;;;;;22.45;9.63;;;-1.90;99.90;;;;;;5053798;28;20029;-70
2023/01/18 02:15:29;;;;;;;19.10;10.30;;;-2.00;99.90;;;;;;5065452;28;20488;-71
2023/01/18 02:18:03;;;;;;;16.38;9.70;;;-1.90;99.90;;;;;;5064423;28;20024;-70
2023/01/18 02:21:02;;;;;;;18.75;9.82;;;-1.90;99.90;;;;;;5067695;28;20108;-70
2023/01/18 02:23:41;;;;;;;20.25;9.77;;;-2.00;99.90;;;;;;5050706;28;20051;-70
2023/01/18 02:26:44;;;;;;;25.33;9.88;;;-1.90;99.90;;;;;;5067314;28;20035;-70
2023/01/18 02:29:27;;;;;;;16.83;9.32;;;-1.90;99.90;;;;;;5055704;28;20108;-70
2023/01/18 02:32:07;;;;;;;19.50;9.30;;;-1.90;99.90;;;;;;5052663;28;20480;-70
2023/01/18 02:34:53;;;;;;;24.30;10.60;;;-1.80;99.90;;;;;;5056297;28;20029;-70
2023/01/18 02:37:41;;;;;;;21.50;10.95;;;-1.80;99.90;;;;;;5067219;28;20050;-71
2023/01/18 02:40:33;;;;;;;21.42;10.38;;;-1.80;99.90;;;;;;5063140;28;20029;-71
2023/01/18 02:48:40;;;;;;;17.52;9.63;;;-2.00;99.90;;;;;;5063308;28;20032;-71
2023/01/18 02:51:06;;;;;;;17.92;10.25;;;-2.00;99.90;;;;;;5053810;28;20063;-70
2023/01/18 02:53:43;;;;;;;18.75;9.65;;;-2.00;99.90;;;;;;5058204;28;20025;-70
2023/01/18 02:56:33;;;;;;;18.95;10.40;;;-1.90;99.90;;;;;;5055767;28;20029;-70
2023/01/18 02:59:13;;;;;;;19.48;9.13;;;-1.80;99.90;;;;;;5064369;28;20028;-70
2023/01/18 03:01:47;;;;;;;18.67;8.73;;;-1.80;99.90;;;;;;5051482;28;20040;-70
2023/01/18 03:04:22;;;;;;;21.73;10.95;;;-1.80;99.90;;;;;;5052043;28;20028;-71
2023/01/18 03:07:09;;;;;;;20.25;9.75;;;-1.80;99.90;;;;;;5058119;28;20028;-70
2023/01/18 03:09:36;;;;;;;19.77;9.63;;;-1.80;99.90;;;;;;5063906;28;20117;-70
2023/01/18 03:12:23;;;;;;;14.90;9.15;;;-1.80;99.90;;;;;;5057017;28;20028;-70
2023/01/18 03:15:12;;;;;;;26.58;10.32;;;-1.90;99.90;;;;;;5054116;28;20029;-70
2023/01/18 03:17:50;;;;;;;18.38;9.40;;;-1.80;99.90;;;;;;5051647;28;20123;-70
2023/01/18 03:20:24;;;;;;;17.35;9.13;;;-1.90;99.90;;;;;;5062856;28;20039;-70
2023/01/18 03:25:56;;;;;;;24.58;10.32;;;-2.00;99.90;;;;;;5069419;28;20031;-70
2023/01/18 03:34:33;;;;;;;28.58;12.05;;;-2.20;99.90;;;;;;5060672;28;20055;-71
2023/01/18 03:37:03;;;;;;;29.13;17.33;;;-2.20;99.90;;;;;;5054359;28;20031;-70
2023/01/18 03:39:39;;;;;;;36.22;23.83;;;-2.20;99.90;;;;;;5061305;28;20042;-70
2023/01/18 03:42:17;;;;;;;38.58;24.45;;;-2.30;99.90;;;;;;5059094;28;20041;-70
2023/01/18 03:44:55;;;;;;;28.65;16.02;;;-2.30;99.90;;;;;;5065553;28;20044;-71
2023/01/18 03:47:20;;;;;;;25.33;13.77;;;-2.30;99.90;;;;;;5059052;28;20049;-70
2023/01/18 03:49:46;;;;;;;31.08;22.65;;;-2.30;99.90;;;;;;5058920;28;20577;-70
2023/01/18 03:52:22;;;;;;;32.80;19.25;;;-2.30;99.90;;;;;;5057806;28;20389;-70
2023/01/18 03:54:57;;;;;;;28.13;15.00;;;-2.40;99.90;;;;;;5055434;28;20020;-70
2023/01/18 03:57:36;;;;;;;32.10;18.88;;;-2.40;99.90;;;;;;5059968;28;20025;-70
2023/01/18 04:00:04;;;;;;;28.90;18.00;;;-2.40;99.90;;;;;;5058543;28;20017;-70
2023/01/18 04:02:30;;;;;;;23.48;13.27;;;-2.40;99.90;;;;;;5061762;28;20531;-71
2023/01/18 04:04:56;;;;;;;23.77;10.60;;;-2.40;99.90;;;;;;5068393;28;20060;-71
2023/01/18 04:07:24;;;;;;;21.30;10.77;;;-2.40;99.90;;;;;;5066189;28;20435;-70
2023/01/18 04:09:50;;;;;;;18.83;11.57;;;-2.30;99.90;;;;;;5055623;28;20056;-71
2023/01/18 04:12:16;;;;;;;28.88;16.55;;;-2.30;99.90;;;;;;5052612;28;20029;-70
2023/01/18 04:14:41;;;;;;;20.55;12.25;;;-2.30;99.90;;;;;;5051522;28;20082;-72
2023/01/18 04:17:07;;;;;;;23.55;12.10;;;-2.30;99.90;;;;;;5064279;28;20042;-72
2023/01/18 04:19:32;;;;;;;23.38;12.32;;;-2.40;99.90;;;;;;5062368;28;20031;-71
2023/01/18 04:21:58;;;;;;;23.77;12.98;;;-2.40;99.90;;;;;;5061685;28;20048;-71
2023/01/18 04:24:23;;;;;;;22.90;12.07;;;-2.40;99.90;;;;;;5068963;28;20021;-71
2023/01/18 04:26:49;;;;;;;24.00;14.70;;;-2.40;99.90;;;;;;5069797;28;20494;-71
2023/01/18 04:29:15;;;;;;;26.83;15.43;;;-2.40;99.90;;;;;;5059117;28;20035;-72
2023/01/18 04:31:40;;;;;;;34.47;21.95;;;-2.40;99.90;;;;;;5053351;28;20028;-72
2023/01/18 04:34:06;;;;;;;32.70;19.20;;;-2.50;99.90;;;;;;5068643;28;20025;-72
2023/01/18 04:36:31;;;;;;;29.85;19.95;;;-2.50;99.90;;;;;;5062454;28;20032;-71
2023/01/18 04:38:57;;;;;;;26.73;17.85;;;-2.50;99.90;;;;;;5063837;28;20021;-72
2023/01/18 04:41:23;;;;;;;32.13;21.52;;;-2.50;99.90;;;;;;5058129;28;20025;-72
2023/01/18 04:43:49;;;;;;;37.17;19.17;;;-2.60;99.90;;;;;;5059820;28;20415;-72
2023/01/18 04:46:14;;;;;;;27.77;15.60;;;-2.60;99.90;;;;;;5055514;28;20032;-72
2023/01/18 04:48:41;;;;;;;28.45;16.98;;;-2.60;99.90;;;;;;5062136;28;20379;-72
2023/01/18 04:51:13;;;;;;;31.58;19.67;;;-2.60;99.90;;;;;;5065088;28;20524;-71
2023/01/18 04:53:40;;;;;;;;;;;-2.60;99.90;;;;;;5051290;28;20021;-71
2023/01/18 04:56:05;;;;;;;35.88;24.40;;;-2.60;99.90;;;;;;5057884;28;19908;-71
2023/01/18 04:58:31;;;;;;;36.55;24.83;;;-2.60;99.90;;;;;;5050324;28;20035;-72
2023/01/18 05:01:00;;;;;;;25.70;15.85;;;-2.60;99.90;;;;;;5061693;28;20017;-71
2023/01/18 05:03:26;;;;;;;17.80;11.05;;;-2.50;99.90;;;;;;5049217;28;20032;-71
2023/01/18 05:05:53;;;;;;;17.05;10.55;;;-2.50;99.90;;;;;;5056129;28;20404;-72
2023/01/18 05:08:18;;;;;;;21.75;10.70;;;-2.50;99.90;;;;;;5059690;28;20031;-71
2023/01/18 05:10:44;;;;;;;22.17;9.68;;;-2.40;99.90;;;;;;5065834;28;20099;-72
2023/01/18 05:13:09;;;;;;;18.60;9.05;;;-2.40;99.90;;;;;;5066965;28;20358;-72
2023/01/18 05:15:35;;;;;;;26.42;11.20;;;-2.30;99.90;;;;;;5061111;28;20025;-72
2023/01/18 05:18:01;;;;;;;44.25;29.75;;;-2.30;99.90;;;;;;5049984;28;20033;-71
2023/01/18 05:20:27;;;;;;;21.15;11.73;;;-2.40;99.90;;;;;;5059008;28;20096;-71
2023/01/18 05:22:53;;;;;;;21.67;10.40;;;-2.30;99.90;;;;;;5066464;28;20135;-71
2023/01/18 05:25:18;;;;;;;27.77;14.43;;;-2.40;99.90;;;;;;5072510;28;20036;-71
2023/01/18 05:27:44;;;;;;;27.88;13.65;;;-2.40;99.90;;;;;;5072493;28;20396;-71
2023/01/18 05:30:10;;;;;;;27.70;15.77;;;-2.40;99.90;;;;;;5064584;28;20029;-72
2023/01/18 05:32:36;;;;;;;29.27;13.70;;;-2.40;99.90;;;;;;5055078;28;20106;-71
2023/01/18 05:35:03;;;;;;;21.23;13.30;;;-2.40;99.90;;;;;;5060246;28;20544;-71
2023/01/18 05:37:28;;;;;;;43.70;31.85;;;-2.40;99.90;;;;;;5072187;28;20060;-72
2023/01/18 05:39:54;;;;;;;34.28;22.98;;;-2.40;99.90;;;;;;5071582;28;20071;-71
2023/01/18 05:42:19;;;;;;;25.15;17.23;;;-2.40;99.90;;;;;;5071377;28;20079;-73
2023/01/18 05:44:45;;;;;;;29.33;17.35;;;-2.40;99.90;;;;;;5057707;28;20048;-71
2023/01/18 05:47:10;;;;;;;30.55;19.92;;;-2.50;99.90;;;;;;5072137;28;20518;-71
2023/01/18 05:49:36;;;;;;;29.13;16.88;;;-2.40;99.90;;;;;;5065019;28;20056;-71
2023/01/18 05:52:07;;;;;;;24.48;16.02;;;-2.50;99.90;;;;;;5061803;28;20032;-72
2023/01/18 05:54:32;;;;;;;26.85;16.67;;;-2.50;99.90;;;;;;5062936;28;20032;-72
2023/01/18 05:56:58;;;;;;;31.95;19.15;;;-2.50;99.90;;;;;;5059723;28;20028;-71
2023/01/18 05:59:24;;;;;;;22.73;14.35;;;-2.50;99.90;;;;;;5070088;28;20153;-71
2023/01/18 06:01:49;;;;;;;27.30;18.17;;;-2.50;99.90;;;;;;5057978;28;20511;-71
2023/01/18 06:04:15;;;;;;;20.23;11.48;;;-2.50;99.90;;;;;;5079202;28;20166;-71
2023/01/18 06:06:40;;;;;;;24.55;12.40;;;-2.50;99.90;;;;;;5053350;28;20495;-72
2023/01/18 06:09:06;;;;;;;19.45;9.73;;;-2.50;99.90;;;;;;5064216;28;20029;-71
2023/01/18 06:11:31;;;;;;;19.50;9.07;;;-2.50;99.90;;;;;;5065457;28;20035;-71
2023/01/18 06:13:57;;;;;;;17.95;8.95;;;-2.50;99.90;;;;;;5063270;28;20061;-71
2023/01/18 06:16:23;;;;;;;20.70;11.05;;;-2.50;99.90;;;;;;5062102;28;20091;-72
2023/01/18 06:18:48;;;;;;;18.90;9.32;;;-2.50;99.90;;;;;;5068076;28;20476;-71
2023/01/18 06:21:14;;;;;;;22.50;12.80;;;-2.50;99.90;;;;;;5064412;28;20028;-71
2023/01/18 06:23:40;;;;;;;36.35;22.10;;;-2.50;99.90;;;;;;5059160;28;20312;-71
2023/01/18 06:26:05;;;;;;;28.58;18.58;;;-2.50;99.90;;;;;;5067184;28;20032;-71
2023/01/18 06:28:31;;;;;;;29.17;18.27;;;-2.50;99.90;;;;;;5068822;28;20059;-71
2023/01/18 06:30:57;;;;;;;24.40;13.07;;;-2.50;99.90;;;;;;5066709;28;20082;-71
2023/01/18 06:33:23;;;;;;;28.25;14.50;;;-2.50;99.90;;;;;;5059439;28;20025;-71
2023/01/18 06:35:49;;;;;;;32.08;18.20;;;-2.50;99.90;;;;;;5064031;28;20481;-71
2023/01/18 06:38:14;;;;;;;27.83;18.42;;;-2.50;99.90;;;;;;5053088;28;20090;-71
2023/01/18 06:40:40;;;;;;;28.30;17.08;;;-2.50;99.90;;;;;;5067343;28;20039;-72
2023/01/18 06:43:07;;;;;;;32.15;18.73;;;-2.50;99.90;;;;;;5061657;28;20036;-71
2023/01/18 06:45:34;;;;;;;22.25;11.57;;;-2.50;99.90;;;;;;5068389;28;20439;-71
2023/01/18 06:47:59;;;;;;;19.58;10.30;;;-2.50;99.90;;;;;;5067554;28;20082;-72
2023/01/18 06:50:25;;;;;;;19.70;9.63;;;-2.50;99.90;;;;;;5067837;28;20040;-72
2023/01/18 06:52:51;;;;;;;18.27;9.23;;;-2.50;99.90;;;;;;5065710;28;20029;-72
2023/01/18 06:55:18;;;;;;;23.13;9.95;;;-2.50;99.90;;;;;;5057023;28;20025;-72
2023/01/18 06:57:44;;;;;;;17.10;9.20;;;-2.50;99.90;;;;;;5062036;28;20031;-71
2023/01/18 07:00:11;;;;;;;20.33;10.40;;;-2.40;99.90;;;;;;5057015;28;20020;-71
2023/01/18 07:02:36;;;;;;;19.35;10.23;;;-2.40;99.90;;;;;;5053950;28;20098;-72
2023/01/18 07:05:03;;;;;;;19.70;10.45;;;-2.40;99.90;;;;;;5070755;28;20499;-71
2023/01/18 07:07:29;;;;;;;21.60;9.38;;;-2.30;99.90;;;;;;5066211;28;20044;-72
2023/01/18 07:09:54;;;;;;;19.42;9.70;;;-2.30;99.90;;;;;;5079038;28;20021;-72
2023/01/18 07:12:20;;;;;;;19.45;9.60;;;-2.30;99.90;;;;;;5067098;28;20028;-71
2023/01/18 07:14:46;;;;;;;18.15;8.90;;;-2.30;99.90;;;;;;5069515;28;20052;-71
2023/01/18 07:17:12;;;;;;;21.23;9.30;;;-2.30;99.90;;;;;;5054067;28;20028;-72
2023/01/18 07:19:38;;;;;;;20.02;9.80;;;-2.30;99.90;;;;;;5042111;28;20033;-71
2023/01/18 07:22:03;;;;;;;18.15;9.15;;;-2.30;99.90;;;;;;5055620;28;20036;-71
2023/01/18 07:24:29;;;;;;;22.42;8.98;;;-2.20;99.90;;;;;;5061623;28;20056;-71
2023/01/18 07:26:54;;;;;;;27.42;11.05;;;-2.30;99.90;;;;;;5061899;28;20044;-71
2023/01/18 07:29:20;;;;;;;21.58;10.07;;;-2.20;99.90;;;;;;5183212;22;20003;-72
2023/01/18 07:31:46;;;;;;;23.42;10.45;;;-2.20;99.90;;;;;;5086881;28;20025;-71
2023/01/18 07:34:12;;;;;;;19.85;9.43;;;-2.20;99.90;;;;;;5075866;28;20549;-71
2023/01/18 07:36:40;;;;;;;21.80;9.98;;;-2.20;99.90;;;;;;5091905;28;20418;-71
2023/01/18 07:39:09;;;;;;;22.60;10.48;;;-2.20;99.90;;;;;;5070100;28;20016;-71
2023/01/18 07:41:35;;;;;;;26.10;10.85;;;-2.20;99.90;;;;;;5081165;28;20038;-71
2023/01/18 07:44:01;;;;;;;17.83;9.40;;;-2.20;99.90;;;;;;5071648;28;20029;-71
2023/01/18 07:46:26;;;;;;;22.00;10.50;;;-2.20;99.90;;;;;;5071288;28;20081;-71
2023/01/18 07:48:52;;;;;;;22.48;9.27;;;-2.20;99.90;;;;;;5067127;28;20384;-71
2023/01/18 07:51:20;;;;;;;21.27;9.95;;;-2.30;99.90;;;;;;5069313;28;20058;-71
2023/01/18 07:53:46;;;;;;;22.90;10.23;;;-2.20;99.90;;;;;;5057081;28;20039;-71
2023/01/18 07:56:16;;;;;;;21.52;9.35;;;-2.20;99.90;;;;;;5063755;28;20480;-71
2023/01/18 07:58:42;;;;;;;23.60;9.25;;;-2.20;99.90;;;;;;5066917;28;20024;-71
2023/01/18 08:01:18;;;;;;;24.05;10.20;;;-2.20;99.90;;;;;;5059638;28;20032;-71
2023/01/18 08:03:46;;;;;;;23.15;9.73;;;-2.10;99.90;;;;;;5075156;28;20032;-72
2023/01/18 08:06:12;;;;;;;23.20;9.77;;;-2.10;99.90;;;;;;5070230;28;20020;-71
2023/01/18 08:08:38;;;;;;;28.17;11.35;;;-2.20;99.90;;;;;;5071658;28;20120;-72
2023/01/18 08:11:05;;;;;;;20.02;10.60;;;-2.20;99.90;;;;;;5064827;28;20540;-71
2023/01/18 08:13:31;;;;;;;23.58;10.65;;;-2.10;99.90;;;;;;5068701;28;20035;-73
2023/01/18 08:16:05;;;;;;;26.48;11.30;;;-2.10;99.90;;;;;;5072434;28;20091;-71
2023/01/18 08:18:31;;;;;;;20.75;11.07;;;-2.00;99.90;;;;;;5052213;28;20118;-71
2023/01/18 08:20:57;;;;;;;26.55;11.30;;;-2.00;99.90;;;;;;5069611;28;20127;-72
2023/01/18 08:23:22;;;;;;;22.35;11.13;;;-2.00;99.90;;;;;;5056238;28;20021;-71
2023/01/18 08:25:48;;;;;;;22.17;10.88;;;-1.90;99.90;;;;;;5085215;28;20031;-72
2023/01/18 08:28:14;;;;;;;26.10;12.82;;;-1.90;99.90;;;;;;5059677;28;20028;-71
2023/01/18 08:30:43;;;;;;;21.23;11.40;;;-1.80;99.90;;;;;;5080855;28;20052;-71
2023/01/18 08:33:09;;;;;;;23.60;12.23;;;-1.70;99.90;;;;;;5073827;28;20032;-71
2023/01/18 08:35:42;;;;;;;22.77;11.52;;;-1.70;99.90;;;;;;5050583;28;20021;-73
2023/01/18 08:38:09;;;;;;;20.52;10.20;;;-1.70;99.90;;;;;;5071280;28;20052;-71
2023/01/18 08:40:35;;;;;;;22.83;10.32;;;-1.60;99.90;;;;;;5054573;28;20484;-71
2023/01/18 08:43:02;;;;;;;25.02;12.13;;;-1.60;99.90;;;;;;5056119;28;20028;-71
2023/01/18 08:45:28;;;;;;;24.52;11.20;;;-1.50;99.90;;;;;;5061622;28;20068;-71
2023/01/18 08:47:59;;;;;;;22.40;12.85;;;-1.40;99.90;;;;;;5065397;28;20028;-71
2023/01/18 08:50:26;;;;;;;24.75;11.50;;;-1.20;99.90;;;;;;5051767;28;20405;-71
2023/01/18 08:52:52;;;;;;;20.95;11.70;;;-1.10;99.90;;;;;;5052663;28;20036;-71
2023/01/18 08:55:18;;;;;;;22.65;11.40;;;-1.00;99.90;;;;;;5067513;28;20025;-71
2023/01/18 08:57:44;;;;;;;19.48;10.52;;;-1.00;99.90;;;;;;5070999;28;20036;-71
2023/01/18 09:00:10;;;;;;;22.98;10.77;;;-0.80;99.90;;;;;;5063176;28;20741;-71
2023/01/18 09:02:35;;;;;;;23.67;11.98;;;-0.70;99.90;;;;;;5073758;28;20032;-72
2023/01/18 09:05:01;;;;;;;24.92;11.32;;;-0.60;99.90;;;;;;5063349;28;20083;-72
2023/01/18 09:07:27;;;;;;;21.23;10.80;;;-0.50;99.90;;;;;;5069926;28;20035;-71
2023/01/18 09:09:53;;;;;;;25.45;11.15;;;-0.40;99.90;;;;;;5069346;28;20029;-71
2023/01/18 09:12:18;;;;;;;23.20;11.15;;;-0.30;99.90;;;;;;5073108;28;20024;-71
2023/01/18 09:14:44;;;;;;;23.25;10.85;;;-0.30;99.90;;;;;;5071827;28;20046;-71
2023/01/18 09:17:10;;;;;;;21.00;11.30;;;-0.10;99.90;;;;;;5071570;28;20024;-71
2023/01/18 09:19:36;;;;;;;19.85;11.00;;;0.00;99.90;;;;;;5047990;28;20480;-72
2023/01/18 09:22:02;;;;;;;19.67;10.32;;;0.00;99.90;;;;;;5068050;28;20031;-71
2023/01/18 09:24:28;;;;;;;22.77;10.82;;;0.00;99.90;;;;;;5068353;28;20049;-72
2023/01/18 09:26:54;;;;;;;21.52;11.05;;;0.10;99.90;;;;;;5077118;28;20469;-72
2023/01/18 09:29:20;;;;;;;21.60;10.10;;;0.20;99.90;;;;;;5071192;28;20028;-71
2023/01/18 09:31:47;;;;;;;20.83;10.88;;;0.30;99.90;;;;;;5055283;28;20035;-71
2023/01/18 09:34:15;;;;;;;24.85;11.32;;;0.30;99.90;;;;;;5081309;28;20045;-71
2023/01/18 09:36:41;;;;;;;19.70;10.90;;;0.40;99.90;;;;;;5059873;28;20024;-71
2023/01/18 09:39:07;;;;;;;26.20;12.95;;;0.40;99.90;;;;;;5061553;28;20082;-72
2023/01/18 09:41:36;;;;;;;19.17;10.90;;;0.50;99.90;;;;;;5065572;28;20025;-71
2023/01/18 09:44:15;;;;;;;18.60;10.35;;;0.60;99.90;;;;;;5068618;28;20467;-72
2023/01/18 09:46:43;;;;;;;17.50;10.48;;;0.60;99.90;;;;;;5069423;28;20032;-72
2023/01/18 09:49:18;;;;;;;19.08;10.13;;;0.70;99.90;;;;;;5085610;28;20495;-72
2023/01/18 09:51:52;;;;;;;25.17;11.73;;;0.70;99.90;;;;;;5092090;28;20567;-72
2023/01/18 09:54:50;;;;;;;18.55;10.38;;;0.80;99.90;;;;;;5066834;28;20028;-73
2023/01/18 09:57:31;;;;;;;20.33;10.68;;;0.90;99.90;;;;;;5091403;28;20027;-72
2023/01/18 09:59:58;;;;;;;17.95;10.35;;;1.00;99.90;;;;;;5088406;28;20107;-73
2023/01/18 10:02:37;;;;;;;18.17;10.15;;;1.00;99.90;;;;;;5087840;28;20028;-72
2023/01/18 10:05:09;;;;;;;19.83;9.82;;;1.10;99.90;;;;;;5079673;28;20385;-71
2023/01/18 10:07:44;;;;;;;19.33;10.20;;;1.20;99.90;;;;;;5071535;28;20163;-71
2023/01/18 10:10:14;;;;;;;17.98;9.25;;;1.20;99.90;;;;;;5065142;28;20275;-72
2023/01/18 10:12:50;;;;;;;17.23;9.40;;;1.20;99.90;;;;;;5071421;28;20160;-71
2023/01/18 10:15:22;;;;;;;20.95;10.48;;;1.20;99.90;;;;;;5065284;28;20021;-72
2023/01/18 10:17:52;;;;;;;21.25;10.68;;;1.30;99.90;;;;;;5062762;28;20055;-71
2023/01/18 10:20:30;;;;;;;19.52;9.02;;;1.30;99.90;;;;;;5064176;28;20058;-71
2023/01/18 10:23:08;;;;;;;17.77;9.40;;;1.30;99.90;;;;;;5067983;28;20032;-72
2023/01/18 10:25:45;;;;;;;19.80;9.93;;;1.40;99.90;;;;;;5066481;28;20550;-72
2023/01/18 10:28:26;;;;;;;18.88;8.77;;;1.40;99.90;;;;;;5067188;28;20074;-71
2023/01/18 10:31:39;;;;;;;19.17;9.73;;;1.50;99.90;;;;;;5066558;28;20040;-72
2023/01/18 10:34:17;;;;;;;19.27;9.30;;;1.50;99.90;;;;;;5060481;28;20127;-72
2023/01/18 10:36:46;;;;;;;21.33;8.80;;;1.60;99.90;;;;;;5066313;28;20031;-72
2023/01/18 10:39:37;;;;;;;15.75;8.65;;;1.60;99.90;;;;;;5061273;28;20111;-72
2023/01/18 10:42:08;;;;;;;18.02;9.70;;;1.70;99.90;;;;;;5063766;28;20090;-71
2023/01/18 10:44:34;;;;;;;18.33;8.87;;;1.70;99.90;;;;;;5056760;28;20083;-72
2023/01/18 10:47:01;;;;;;;16.58;9.50;;;1.70;99.90;;;;;;5062593;28;20423;-71
2023/01/18 10:49:38;;;;;;;17.40;9.63;;;1.80;99.90;;;;;;5062744;28;20028;-70
2023/01/18 10:52:28;;;;;;;15.68;8.85;;;1.80;99.90;;;;;;5062902;28;20127;-70
2023/01/18 10:55:00;;;;;;;15.50;8.10;;;1.90;99.90;;;;;;5047460;28;20464;-70
2023/01/18 10:57:41;;;;;;;19.15;9.82;;;1.90;99.90;;;;;;5069103;28;20120;-70
2023/01/18 11:00:20;;;;;;;18.27;8.77;;;2.00;99.90;;;;;;5060002;28;20085;-71
2023/01/18 11:02:48;;;;;;;17.52;8.88;;;2.00;99.90;;;;;;5066213;28;20036;-71
2023/01/18 11:05:36;;;;;;;17.45;9.18;;;2.00;99.90;;;;;;5071514;28;20453;-71
2023/01/18 11:08:22;;;;;;;20.27;8.65;;;2.00;99.90;;;;;;5092378;28;20024;-71
2023/01/18 11:14:25;;;;;;;17.15;9.18;;;2.10;99.90;;;;;;5069179;28;20093;-71
2023/01/18 11:17:10;;;;;;;13.93;8.25;;;2.20;99.90;;;;;;5039883;28;20063;-71
2023/01/18 11:19:40;;;;;;;16.15;8.43;;;2.20;99.90;;;;;;5065880;28;20028;-72
2023/01/18 11:22:16;;;;;;;17.13;8.75;;;2.20;99.90;;;;;;5071011;28;20103;-71
2023/01/18 11:24:41;;;;;;;15.10;7.88;;;2.30;99.90;;;;;;5077610;28;20039;-71
2023/01/18 11:27:20;;;;;;;17.08;8.57;;;2.30;99.90;;;;;;5053541;28;20028;-71
2023/01/18 11:29:46;;;;;;;15.18;7.47;;;2.40;99.90;;;;;;5053978;28;20045;-71
2023/01/18 11:32:19;;;;;;;20.25;7.53;;;2.40;99.90;;;;;;5063534;28;20036;-70
2023/01/18 11:34:50;;;;;;;17.40;8.77;;;2.40;99.90;;;;;;5066432;28;20028;-70
2023/01/18 11:37:34;;;;;;;15.48;8.68;;;2.40;99.90;;;;;;5060312;28;20368;-70
2023/01/18 11:40:33;;;;;;;11.57;7.22;;;2.50;99.90;;;;;;5069565;28;20032;-72
2023/01/18 11:43:02;;;;;;;18.63;7.95;;;2.50;99.90;;;;;;5027041;28;20032;-71
2023/01/18 11:45:34;;;;;;;14.82;7.18;;;2.50;99.90;;;;;;5066740;28;20032;-70
2023/01/18 11:48:00;;;;;;;11.48;7.60;;;2.60;99.90;;;;;;5067957;28;20020;-71
2023/01/18 11:50:34;;;;;;;13.10;7.25;;;2.60;99.90;;;;;;5060629;28;20044;-71
2023/01/18 11:53:03;;;;;;;12.98;7.18;;;2.70;99.90;;;;;;5067779;28;20036;-71
2023/01/18 11:55:37;;;;;;;13.07;6.88;;;2.70;99.90;;;;;;5055398;28;20487;-72
2023/01/18 11:58:07;;;;;;;11.32;6.95;;;2.70;99.90;;;;;;5060901;28;20034;-70
2023/01/18 12:00:45;;;;;;;15.10;6.72;;;2.80;99.90;;;;;;5052128;28;20020;-71
2023/01/18 12:03:25;;;;;;;13.63;6.63;;;2.90;99.90;;;;;;5065421;28;20024;-71
2023/01/18 12:06:02;;;;;;;13.82;7.78;;;2.90;99.90;;;;;;5071792;28;20031;-71
2023/01/18 12:08:53;;;;;;;16.75;7.32;;;3.00;99.90;;;;;;5069731;28;20118;-72
2023/01/18 12:11:28;;;;;;;11.90;6.57;;;3.00;99.90;;;;;;5079435;28;20501;-72
2023/01/18 12:13:58;;;;;;;12.02;6.85;;;3.00;99.90;;;;;;5077108;28;20119;-71
2023/01/18 12:16:40;;;;;;;11.63;6.90;;;3.10;99.90;;;;;;5069220;28;20106;-70
2023/01/18 12:19:24;;;;;;;12.05;7.78;;;3.10;99.90;;;;;;5062595;28;20107;-70
2023/01/18 12:22:35;;;;;;;11.70;6.75;;;3.20;99.90;;;;;;5060246;28;20027;-69
2023/01/18 12:25:17;;;;;;;13.00;6.55;;;3.20;99.90;;;;;;5090133;28;20077;-70
2023/01/18 12:27:54;;;;;;;10.38;5.93;;;3.20;99.90;;;;;;5060354;28;20626;-70
2023/01/18 12:30:37;;;;;;;11.48;6.03;;;3.20;99.90;;;;;;5062468;28;20048;-69
2023/01/18 12:33:32;;;;;;;11.35;6.35;;;3.30;99.90;;;;;;5053454;28;20060;-70
2023/01/18 12:36:21;;;;;;;12.75;6.30;;;3.30;99.90;;;;;;5064266;28;20028;-70
2023/01/18 12:38:52;;;;;;;11.02;5.93;;;3.30;99.90;;;;;;5055063;28;20086;-71
2023/01/18 12:41:48;;;;;;;11.75;6.70;;;3.40;99.90;;;;;;5062152;28;20028;-71
2023/01/18 12:44:14;;;;;;;10.93;6.20;;;3.40;99.90;;;;;;5065854;28;20068;-71
2023/01/18 12:47:13;;;;;;;11.73;6.90;;;3.40;99.90;;;;;;5066585;28;20442;-71
2023/01/18 12:49:45;;;;;;;10.82;6.22;;;3.50;99.90;;;;;;5053378;28;20028;-71
2023/01/18 12:52:15;;;;;;;9.73;5.40;;;3.50;99.90;;;;;;5065783;28;20083;-70
2023/01/18 12:54:45;;;;;;;9.88;6.05;;;3.50;99.90;;;;;;5068250;28;20108;-71
2023/01/18 12:57:12;;;;;;;9.50;5.88;;;3.60;99.90;;;;;;5051579;28;20436;-72
2023/01/18 12:59:52;;;;;;;13.93;6.03;;;3.50;99.90;;;;;;5069213;28;20112;-71
2023/01/18 13:02:51;;;;;;;13.55;6.63;;;3.60;99.90;;;;;;5050721;28;20035;-71
2023/01/18 13:05:42;;;;;;;13.20;5.57;;;3.60;99.90;;;;;;5050941;28;20034;-72
2023/01/18 13:08:18;;;;;;;10.98;5.95;;;3.60;99.90;;;;;;5060472;28;20072;-71
2023/01/18 13:10:45;;;;;;;14.75;5.57;;;3.70;99.90;;;;;;5059121;28;20025;-71
2023/01/18 13:13:18;;;;;;;10.27;4.72;;;3.70;99.90;;;;;;5077725;28;20032;-71
2023/01/18 13:15:52;;;;;;;8.95;4.93;;;3.70;99.90;;;;;;5065271;28;20042;-72
2023/01/18 13:18:28;;;;;;;10.85;4.70;;;3.60;99.90;;;;;;5060101;28;20024;-71
2023/01/18 13:21:28;;;;;;;9.40;4.78;;;3.60;99.90;;;;;;5067600;28;20489;-71
2023/01/18 13:24:20;;;;;;;10.93;4.65;;;3.60;99.90;;;;;;5020448;28;20055;-72
2023/01/18 13:26:46;;;;;;;10.02;4.18;;;3.80;99.90;;;;;;5069718;28;20029;-71
2023/01/18 13:29:28;;;;;;;9.60;4.60;;;3.90;99.90;;;;;;5063821;28;20033;-71
2023/01/18 13:31:55;;;;;;;10.30;4.60;;;4.00;99.90;;;;;;5064625;28;20043;-71